createdAt,value
2023-07-03T00:00:58.139Z,15.81
2023-07-03T00:01:58.255Z,15.84
2023-07-03T00:02:58.298Z,15.81
2023-07-03T00:03:57.460Z,15.84
2023-07-03T00:04:57.606Z,15.85
2023-07-03T00:05:57.517Z,15.89
2023-07-03T00:06:57.668Z,15.85
2023-07-03T00:07:57.725Z,15.84
2023-07-03T00:08:57.857Z,15.84
2023-07-03T00:09:56.941Z,15.85
2023-07-03T00:10:57.080Z,15.84
2023-07-03T00:11:58.036Z,15.80
2023-07-03T00:12:58.121Z,15.81
2023-07-03T00:13:57.250Z,15.80
2023-07-03T00:14:57.221Z,15.81
2023-07-03T00:15:57.283Z,15.80
2023-07-03T00:16:57.446Z,15.80
2023-07-03T00:17:57.501Z,15.78
2023-07-03T00:18:56.564Z,15.80
2023-07-03T00:19:57.643Z,15.80
2023-07-03T00:20:57.709Z,15.78
2023-07-03T00:21:57.799Z,15.80
2023-07-03T00:22:56.927Z,15.78
2023-07-03T00:23:57.987Z,15.80
2023-07-03T00:24:58.037Z,15.80
2023-07-03T00:25:56.158Z,15.77
2023-07-03T00:26:57.225Z,15.74
2023-07-03T00:27:57.283Z,15.74
2023-07-03T00:28:57.381Z,15.70
2023-07-03T00:29:57.476Z,15.71
2023-07-03T00:30:57.652Z,15.71
2023-07-03T00:31:57.762Z,15.73
2023-07-03T00:32:57.785Z,15.71
2023-07-03T00:33:57.800Z,15.71
2023-07-03T00:34:57.095Z,15.70
2023-07-03T00:35:56.955Z,15.67
2023-07-03T00:36:57.131Z,15.66
2023-07-03T00:37:57.110Z,15.66
2023-07-03T00:38:57.451Z,15.58
2023-07-03T00:39:56.478Z,15.62
2023-07-03T00:40:57.450Z,15.59
2023-07-03T00:41:57.739Z,15.59
2023-07-03T00:42:56.630Z,15.52
2023-07-03T00:43:56.656Z,15.52
2023-07-03T00:44:56.749Z,15.52
2023-07-03T00:45:57.062Z,15.52
2023-07-03T00:46:56.862Z,15.49
2023-07-03T00:47:58.035Z,15.52
2023-07-03T00:48:56.980Z,15.49
2023-07-03T00:49:57.059Z,15.49
2023-07-03T00:50:57.171Z,15.48
2023-07-03T00:51:56.260Z,15.48
2023-07-03T00:52:56.408Z,15.46
2023-07-03T00:53:57.464Z,15.38
2023-07-03T00:54:57.485Z,15.35
2023-07-03T00:55:56.597Z,15.34
2023-07-03T00:56:56.686Z,15.19
2023-07-03T00:57:56.779Z,15.30
2023-07-03T00:58:55.876Z,15.31
2023-07-03T01:00:02.725Z,15.31
2023-07-03T01:00:56.060Z,15.33
2023-07-03T01:01:57.164Z,15.34
2023-07-03T01:02:57.245Z,15.35
2023-07-03T01:03:57.273Z,15.34
2023-07-03T01:04:57.428Z,15.33
2023-07-03T01:05:56.714Z,15.34
2023-07-03T01:06:55.579Z,15.31
2023-07-03T01:07:56.637Z,15.28
2023-07-03T01:08:56.711Z,15.27
2023-07-03T01:09:56.884Z,15.28
2023-07-03T01:10:56.976Z,15.28
2023-07-03T01:11:57.216Z,15.28
2023-07-03T01:12:57.178Z,15.28
2023-07-03T01:13:57.291Z,15.28
2023-07-03T01:14:56.422Z,15.27
2023-07-03T01:15:56.478Z,15.27
2023-07-03T01:16:56.558Z,15.23
2023-07-03T01:17:57.900Z,15.20
2023-07-03T01:18:56.718Z,15.19
2023-07-03T01:19:56.882Z,15.22
2023-07-03T01:20:55.988Z,15.19
2023-07-03T01:21:56.122Z,15.18
2023-07-03T01:22:57.137Z,15.16
2023-07-03T01:23:57.268Z,15.16
2023-07-03T01:24:55.426Z,15.18
2023-07-03T01:25:55.495Z,15.16
2023-07-03T01:26:56.573Z,15.13
2023-07-03T01:27:55.738Z,15.13
2023-07-03T01:28:56.791Z,15.12
2023-07-03T01:29:56.913Z,15.09
2023-07-03T01:30:57.007Z,15.07
2023-07-03T01:31:57.129Z,15.05
2023-07-03T01:32:56.208Z,15.04
2023-07-03T01:33:56.301Z,15.03
2023-07-03T01:34:56.417Z,15.01
2023-07-03T01:35:56.570Z,15.01
2023-07-03T01:36:56.616Z,14.98
2023-07-03T01:37:55.738Z,14.98
2023-07-03T01:38:55.894Z,14.97
2023-07-03T01:39:56.973Z,14.93
2023-07-03T01:40:56.040Z,14.91
2023-07-03T01:41:56.203Z,14.90
2023-07-03T01:42:55.353Z,14.86
2023-07-03T01:43:55.418Z,14.83
2023-07-03T01:44:55.533Z,14.80
2023-07-03T01:45:55.771Z,14.75
2023-07-03T01:46:56.748Z,14.72
2023-07-03T01:47:55.869Z,14.72
2023-07-03T01:48:57.003Z,14.75
2023-07-03T01:49:56.026Z,14.71
2023-07-03T01:50:56.127Z,14.64
2023-07-03T01:51:55.261Z,14.59
2023-07-03T01:52:55.427Z,14.52
2023-07-03T01:53:56.469Z,14.46
2023-07-03T01:54:55.591Z,14.45
2023-07-03T01:55:55.648Z,14.44
2023-07-03T01:56:56.735Z,14.42
2023-07-03T01:57:56.870Z,14.44
2023-07-03T01:58:54.973Z,14.42
2023-07-03T01:59:56.035Z,14.41
2023-07-03T02:00:56.192Z,14.36
2023-07-03T02:01:56.220Z,14.35
2023-07-03T02:02:56.424Z,14.34
2023-07-03T02:03:56.547Z,14.29
2023-07-03T02:04:56.640Z,14.26
2023-07-03T02:05:56.676Z,14.21
2023-07-03T02:06:55.728Z,14.23
2023-07-03T02:07:55.896Z,14.23
2023-07-03T02:08:55.932Z,14.19
2023-07-03T02:09:56.158Z,14.19
2023-07-03T02:10:56.206Z,14.13
2023-07-03T02:11:56.497Z,14.13
2023-07-03T02:12:55.457Z,14.11
2023-07-03T02:13:56.512Z,14.16
2023-07-03T02:14:56.627Z,14.08
2023-07-03T02:15:54.770Z,14.09
2023-07-03T02:16:55.920Z,14.06
2023-07-03T02:17:57.120Z,14.08
2023-07-03T02:18:56.027Z,14.04
2023-07-03T02:19:56.340Z,13.99
2023-07-03T02:20:56.309Z,13.99
2023-07-03T02:21:56.883Z,14.01
2023-07-03T02:22:56.535Z,13.99
2023-07-03T02:23:55.600Z,14.02
2023-07-03T02:24:55.681Z,14.01
2023-07-03T02:25:55.817Z,14.02
2023-07-03T02:26:55.987Z,13.98
2023-07-03T02:27:56.035Z,13.98
2023-07-03T02:28:56.144Z,13.93
2023-07-03T02:29:56.285Z,13.93
2023-07-03T02:30:56.432Z,13.91
2023-07-03T02:31:54.508Z,13.93
2023-07-03T02:32:54.692Z,13.91
2023-07-03T02:33:55.720Z,13.90
2023-07-03T02:34:54.878Z,13.86
2023-07-03T02:35:54.994Z,13.87
2023-07-03T02:36:55.078Z,13.83
2023-07-03T02:37:55.216Z,13.76
2023-07-03T02:38:55.285Z,13.75
2023-07-03T02:39:54.383Z,13.72
2023-07-03T02:40:54.439Z,13.68
2023-07-03T02:41:54.514Z,13.68
2023-07-03T02:42:54.674Z,13.65
2023-07-03T02:43:55.754Z,13.63
2023-07-03T02:44:54.874Z,13.62
2023-07-03T02:45:55.936Z,13.61
2023-07-03T02:46:55.303Z,13.54
2023-07-03T02:47:56.217Z,13.50
2023-07-03T02:48:55.303Z,13.50
2023-07-03T02:49:55.423Z,13.51
2023-07-03T02:50:55.480Z,13.51
2023-07-03T02:51:54.710Z,13.51
2023-07-03T02:52:55.761Z,13.50
2023-07-03T02:53:54.916Z,13.48
2023-07-03T02:54:55.049Z,13.50
2023-07-03T02:55:54.177Z,13.48
2023-07-03T02:56:55.193Z,13.46
2023-07-03T02:57:55.353Z,13.44
2023-07-03T02:58:55.416Z,13.43
2023-07-03T02:59:55.545Z,13.38
2023-07-03T03:00:55.818Z,13.36
2023-07-03T03:01:55.776Z,13.32
2023-07-03T03:02:55.971Z,13.29
2023-07-03T03:03:55.989Z,13.28
2023-07-03T03:04:55.261Z,13.27
2023-07-03T03:05:55.145Z,13.32
2023-07-03T03:06:55.350Z,13.36
2023-07-03T03:07:55.414Z,13.32
2023-07-03T03:08:54.522Z,13.28
2023-07-03T03:09:54.631Z,13.24
2023-07-03T03:10:54.843Z,13.19
2023-07-03T03:11:55.896Z,13.16
2023-07-03T03:12:54.000Z,13.14
2023-07-03T03:13:54.132Z,13.16
2023-07-03T03:14:54.212Z,13.21
2023-07-03T03:15:54.526Z,13.24
2023-07-03T03:16:54.529Z,13.24
2023-07-03T03:17:54.601Z,13.24
2023-07-03T03:18:54.807Z,13.17
2023-07-03T03:19:54.787Z,13.21
2023-07-03T03:20:53.892Z,13.25
2023-07-03T03:21:54.976Z,13.24
2023-07-03T03:22:55.071Z,13.24
2023-07-03T03:23:55.228Z,13.22
2023-07-03T03:24:55.259Z,13.24
2023-07-03T03:25:55.427Z,13.22
2023-07-03T03:26:55.490Z,13.17
2023-07-03T03:27:54.647Z,13.13
2023-07-03T03:28:54.719Z,13.10
2023-07-03T03:29:54.835Z,13.07
2023-07-03T03:30:54.951Z,13.07
2023-07-03T03:31:55.022Z,13.07
2023-07-03T03:32:55.151Z,13.10
2023-07-03T03:33:55.236Z,13.12
2023-07-03T03:34:55.454Z,13.12
2023-07-03T03:35:55.474Z,13.09
2023-07-03T03:36:54.542Z,13.09
2023-07-03T03:37:54.705Z,13.07
2023-07-03T03:38:54.796Z,13.06
2023-07-03T03:39:54.948Z,13.09
2023-07-03T03:40:54.429Z,13.10
2023-07-03T03:41:55.179Z,13.12
2023-07-03T03:42:55.269Z,13.14
2023-07-03T03:43:55.484Z,13.16
2023-07-03T03:44:54.470Z,13.16
2023-07-03T03:45:54.657Z,13.16
2023-07-03T03:46:53.879Z,13.12
2023-07-03T03:47:55.045Z,13.07
2023-07-03T03:48:55.223Z,13.07
2023-07-03T03:49:54.283Z,13.06
2023-07-03T03:50:53.378Z,13.07
2023-07-03T03:51:53.579Z,13.07
2023-07-03T03:52:54.633Z,13.10
2023-07-03T03:53:53.813Z,13.09
2023-07-03T03:54:54.901Z,13.09
2023-07-03T03:55:54.234Z,13.07
2023-07-03T03:56:55.220Z,13.06
2023-07-03T03:57:53.340Z,13.06
2023-07-03T03:58:53.521Z,13.09
2023-07-03T03:59:53.611Z,13.12
2023-07-03T04:00:54.728Z,13.09
2023-07-03T04:01:53.891Z,13.13
2023-07-03T04:02:54.047Z,13.13
2023-07-03T04:03:55.122Z,13.14
2023-07-03T04:04:53.276Z,13.12
2023-07-03T04:05:53.626Z,13.09
2023-07-03T04:06:53.458Z,13.09
2023-07-03T04:07:53.624Z,13.13
2023-07-03T04:08:53.760Z,13.16
2023-07-03T04:09:53.946Z,13.16
2023-07-03T04:10:54.030Z,13.17
2023-07-03T04:11:53.143Z,13.16
2023-07-03T04:12:53.288Z,13.19
2023-07-03T04:13:53.434Z,13.19
2023-07-03T04:14:53.527Z,13.21
2023-07-03T04:15:55.300Z,13.21
2023-07-03T04:16:54.783Z,13.21
2023-07-03T04:17:54.836Z,13.24
2023-07-03T04:18:54.945Z,13.24
2023-07-03T04:19:54.039Z,13.25
2023-07-03T04:20:53.154Z,13.24
2023-07-03T04:21:53.382Z,13.25
2023-07-03T04:22:53.403Z,13.25
2023-07-03T04:23:53.508Z,13.25
2023-07-03T04:24:53.664Z,13.25
2023-07-03T04:25:54.727Z,13.28
2023-07-03T04:26:52.874Z,13.29
2023-07-03T04:27:53.084Z,13.31
2023-07-03T04:28:53.123Z,13.36
2023-07-03T04:29:53.253Z,13.39
2023-07-03T04:30:53.409Z,13.43
2023-07-03T04:31:53.558Z,13.47
2023-07-03T04:32:54.594Z,13.50
2023-07-03T04:33:53.738Z,13.50
2023-07-03T04:34:52.851Z,13.54
2023-07-03T04:35:53.219Z,13.54
2023-07-03T04:36:53.080Z,13.55
2023-07-03T04:37:53.244Z,13.55
2023-07-03T04:38:53.389Z,13.57
2023-07-03T04:39:53.512Z,13.61
2023-07-03T04:40:53.629Z,13.61
2023-07-03T04:41:52.736Z,13.54
2023-07-03T04:42:52.911Z,13.62
2023-07-03T04:43:53.042Z,13.62
2023-07-03T04:44:53.809Z,13.65
2023-07-03T04:45:53.696Z,13.63
2023-07-03T04:46:53.447Z,13.65
2023-07-03T04:47:53.633Z,13.65
2023-07-03T04:48:52.700Z,13.68
2023-07-03T04:49:53.759Z,13.69
2023-07-03T04:50:53.928Z,13.68
2023-07-03T04:51:53.018Z,13.68
2023-07-03T04:52:53.303Z,13.71
2023-07-03T04:53:53.256Z,13.72
2023-07-03T04:54:53.376Z,13.73
2023-07-03T04:55:53.728Z,13.72
2023-07-03T04:56:53.519Z,13.71
2023-07-03T04:57:52.574Z,13.73
2023-07-03T04:58:53.645Z,13.73
2023-07-03T04:59:52.775Z,13.75
2023-07-03T05:00:53.894Z,13.75
2023-07-03T05:01:53.995Z,13.76
2023-07-03T05:02:53.166Z,13.76
2023-07-03T05:03:53.318Z,13.76
2023-07-03T05:04:53.293Z,13.76
2023-07-03T05:05:53.655Z,13.79
2023-07-03T05:06:52.457Z,13.80
2023-07-03T05:07:52.580Z,13.80
2023-07-03T05:08:53.683Z,13.80
2023-07-03T05:09:53.727Z,13.81
2023-07-03T05:10:52.905Z,13.86
2023-07-03T05:11:53.074Z,13.86
2023-07-03T05:12:53.115Z,13.86
2023-07-03T05:13:53.157Z,13.86
2023-07-03T05:14:53.291Z,13.86
2023-07-03T05:15:52.676Z,13.88
2023-07-03T05:16:53.452Z,13.88
2023-07-03T05:17:53.733Z,13.88
2023-07-03T05:18:52.678Z,13.90
2023-07-03T05:19:53.718Z,13.90
2023-07-03T05:20:53.870Z,13.91
2023-07-03T05:21:52.955Z,13.91
2023-07-03T05:22:53.007Z,13.93
2023-07-03T05:23:53.092Z,13.88
2023-07-03T05:24:52.172Z,13.88
2023-07-03T05:25:53.470Z,13.90
2023-07-03T05:26:53.244Z,13.90
2023-07-03T05:27:52.387Z,13.90
2023-07-03T05:28:52.578Z,13.93
2023-07-03T05:29:52.624Z,13.91
2023-07-03T05:30:53.784Z,13.94
2023-07-03T05:31:52.949Z,13.94
2023-07-03T05:32:52.060Z,13.99
2023-07-03T05:33:53.096Z,13.99
2023-07-03T05:34:53.263Z,13.99
2023-07-03T05:35:54.826Z,14.01
2023-07-03T05:36:52.472Z,14.01
2023-07-03T05:37:52.609Z,14.02
2023-07-03T05:38:52.708Z,14.04
2023-07-03T05:39:52.926Z,14.08
2023-07-03T05:40:53.836Z,14.06
2023-07-03T05:41:52.932Z,14.08
2023-07-03T05:42:53.003Z,14.11
2023-07-03T05:43:53.122Z,14.12
2023-07-03T05:44:52.278Z,14.16
2023-07-03T05:45:53.599Z,14.17
2023-07-03T05:46:53.520Z,14.19
2023-07-03T05:47:53.601Z,14.23
2023-07-03T05:48:52.701Z,14.23
2023-07-03T05:49:53.786Z,14.26
2023-07-03T05:50:52.834Z,14.30
2023-07-03T05:51:53.020Z,14.35
2023-07-03T05:52:53.062Z,14.39
2023-07-03T05:53:53.157Z,14.42
2023-07-03T05:54:53.316Z,14.45
2023-07-03T05:55:52.617Z,14.45
2023-07-03T05:56:52.584Z,14.48
2023-07-03T05:57:52.651Z,14.52
2023-07-03T05:58:53.740Z,14.59
2023-07-03T05:59:52.797Z,14.48
2023-07-03T06:00:52.895Z,14.49
2023-07-03T06:01:52.933Z,14.52
2023-07-03T06:02:52.126Z,14.49
2023-07-03T06:03:53.152Z,14.48
2023-07-03T06:04:53.261Z,14.49
2023-07-03T06:05:52.646Z,14.48
2023-07-03T06:06:52.460Z,14.45
2023-07-03T06:07:54.000Z,14.46
2023-07-03T06:08:51.678Z,14.44
2023-07-03T06:09:51.765Z,14.45
2023-07-03T06:10:51.838Z,14.46
2023-07-03T06:11:52.928Z,14.46
2023-07-03T06:12:52.095Z,14.48
2023-07-03T06:13:52.292Z,14.48
2023-07-03T06:14:53.305Z,14.49
2023-07-03T06:15:53.700Z,14.52
2023-07-03T06:16:52.543Z,14.53
2023-07-03T06:17:52.652Z,14.53
2023-07-03T06:18:52.672Z,14.54
2023-07-03T06:19:51.893Z,14.56
2023-07-03T06:20:51.943Z,14.59
2023-07-03T06:21:52.022Z,14.66
2023-07-03T06:22:52.139Z,14.64
2023-07-03T06:23:52.253Z,14.67
2023-07-03T06:24:52.284Z,14.69
2023-07-03T06:25:51.768Z,14.69
2023-07-03T06:26:51.594Z,14.71
2023-07-03T06:27:51.643Z,14.74
2023-07-03T06:28:51.777Z,14.75
2023-07-03T06:29:51.883Z,14.79
2023-07-03T06:30:55.027Z,14.79
2023-07-03T06:31:52.096Z,14.80
2023-07-03T06:32:52.246Z,14.79
2023-07-03T06:33:52.322Z,14.79
2023-07-03T06:34:52.481Z,14.79
2023-07-03T06:35:51.880Z,14.82
2023-07-03T06:36:51.718Z,14.82
2023-07-03T06:37:52.710Z,14.80
2023-07-03T06:38:52.794Z,14.80
2023-07-03T06:39:52.921Z,14.82
2023-07-03T06:40:53.014Z,14.83
2023-07-03T06:41:52.134Z,14.83
2023-07-03T06:42:51.339Z,14.85
2023-07-03T06:43:52.446Z,14.86
2023-07-03T06:44:51.483Z,14.86
2023-07-03T06:45:51.795Z,14.86
2023-07-03T06:46:51.690Z,14.90
2023-07-03T06:47:52.826Z,14.93
2023-07-03T06:48:52.824Z,14.94
2023-07-03T06:49:51.971Z,14.94
2023-07-03T06:50:51.069Z,14.95
2023-07-03T06:51:52.129Z,14.98
2023-07-03T06:52:51.337Z,15.00
2023-07-03T06:53:51.453Z,15.01
2023-07-03T06:54:52.479Z,15.03
2023-07-03T06:55:51.792Z,15.03
2023-07-03T06:56:52.755Z,15.05
2023-07-03T06:57:52.812Z,15.11
2023-07-03T06:58:51.015Z,15.13
2023-07-03T06:59:52.456Z,15.16
2023-07-03T07:00:51.197Z,15.20
2023-07-03T07:01:52.315Z,15.22
2023-07-03T07:02:52.529Z,15.25
2023-07-03T07:03:52.577Z,15.27
2023-07-03T07:04:52.712Z,15.33
2023-07-03T07:05:52.208Z,15.35
2023-07-03T07:06:50.845Z,15.38
2023-07-03T07:07:50.915Z,15.38
2023-07-03T07:08:51.067Z,15.41
2023-07-03T07:09:51.633Z,15.44
2023-07-03T07:10:51.290Z,15.44
2023-07-03T07:11:51.321Z,15.46
2023-07-03T07:12:51.469Z,15.48
2023-07-03T07:13:52.264Z,15.51
2023-07-03T07:14:51.625Z,15.52
2023-07-03T07:15:51.251Z,15.55
2023-07-03T07:16:51.000Z,15.56
2023-07-03T07:17:52.237Z,15.53
2023-07-03T07:18:50.997Z,15.55
2023-07-03T07:19:52.029Z,15.53
2023-07-03T07:20:51.189Z,15.58
2023-07-03T07:21:52.334Z,15.59
2023-07-03T07:22:52.383Z,15.60
2023-07-03T07:23:52.463Z,15.58
2023-07-03T07:24:50.618Z,15.58
2023-07-03T07:25:50.858Z,15.58
2023-07-03T07:26:50.778Z,15.59
2023-07-03T07:27:50.930Z,15.58
2023-07-03T07:28:50.989Z,15.59
2023-07-03T07:29:51.077Z,15.56
2023-07-03T07:30:51.233Z,15.62
2023-07-03T07:31:51.226Z,15.60
2023-07-03T07:32:51.402Z,15.64
2023-07-03T07:33:51.440Z,15.62
2023-07-03T07:34:50.454Z,15.66
2023-07-03T07:35:50.724Z,15.64
2023-07-03T07:36:50.633Z,15.64
2023-07-03T07:37:50.706Z,15.64
2023-07-03T07:38:52.061Z,15.67
2023-07-03T07:39:50.898Z,15.68
2023-07-03T07:40:51.105Z,15.71
2023-07-03T07:41:52.048Z,15.73
2023-07-03T07:42:52.148Z,15.78
2023-07-03T07:43:52.262Z,15.80
2023-07-03T07:44:50.387Z,15.80
2023-07-03T07:45:50.630Z,15.81
2023-07-03T07:46:50.572Z,15.85
2023-07-03T07:47:50.699Z,15.86
2023-07-03T07:48:50.907Z,15.85
2023-07-03T07:49:50.814Z,15.85
2023-07-03T07:50:50.933Z,15.85
2023-07-03T07:51:51.035Z,15.88
2023-07-03T07:52:51.129Z,15.89
2023-07-03T07:53:51.243Z,15.91
2023-07-03T07:54:50.330Z,15.92
2023-07-03T07:55:50.591Z,15.89
2023-07-03T07:56:50.378Z,15.91
2023-07-03T07:57:50.494Z,15.93
2023-07-03T07:58:51.693Z,15.96
2023-07-03T07:59:50.701Z,16.06
2023-07-03T08:00:50.799Z,16.08
2023-07-03T08:01:50.885Z,16.11
2023-07-03T08:02:51.089Z,16.14
2023-07-03T08:03:51.044Z,16.18
2023-07-03T08:04:50.388Z,16.22
2023-07-03T08:05:50.420Z,16.18
2023-07-03T08:06:50.217Z,16.23
2023-07-03T08:07:50.356Z,16.26
2023-07-03T08:08:50.399Z,16.25
2023-07-03T08:09:50.599Z,16.23
2023-07-03T08:10:50.647Z,16.27
2023-07-03T08:11:50.664Z,16.25
2023-07-03T08:12:50.762Z,16.25
2023-07-03T08:13:50.867Z,16.23
2023-07-03T08:14:51.004Z,16.22
2023-07-03T08:15:50.414Z,16.25
2023-07-03T08:16:50.229Z,16.27
2023-07-03T08:17:50.373Z,16.26
2023-07-03T08:18:50.386Z,16.26
2023-07-03T08:19:50.432Z,16.26
2023-07-03T08:20:50.749Z,16.26
2023-07-03T08:21:50.678Z,16.26
2023-07-03T08:22:50.798Z,16.23
2023-07-03T08:23:50.823Z,16.26
2023-07-03T08:24:49.807Z,16.27
2023-07-03T08:25:50.181Z,16.30
2023-07-03T08:26:50.057Z,16.29
2023-07-03T08:27:50.060Z,16.25
2023-07-03T08:28:50.171Z,16.25
2023-07-03T08:29:50.203Z,16.23
2023-07-03T08:30:50.351Z,16.17
2023-07-03T08:31:50.426Z,16.14
2023-07-03T08:32:50.495Z,16.16
2023-07-03T08:33:50.523Z,16.13
2023-07-03T08:37:49.932Z,16.01
2023-07-03T08:38:49.917Z,16.03
2023-07-03T08:39:50.017Z,16.03
2023-07-03T08:40:50.295Z,16.08
2023-07-03T08:41:50.209Z,16.14
2023-07-03T08:42:50.300Z,16.14
2023-07-03T08:43:50.395Z,16.17
2023-07-03T08:44:50.472Z,16.25
2023-07-03T08:45:49.522Z,16.32
2023-07-03T08:46:58.684Z,16.32
2023-07-03T08:47:50.740Z,16.36
2023-07-03T08:48:49.711Z,16.40
2023-07-03T08:49:49.790Z,16.41
2023-07-03T08:50:50.890Z,16.37
2023-07-03T08:51:50.954Z,16.42
2023-07-03T08:52:50.091Z,16.42
2023-07-03T08:53:50.535Z,16.42
2023-07-03T08:54:51.195Z,16.47
2023-07-03T08:55:51.229Z,16.48
2023-07-03T08:56:51.301Z,16.55
2023-07-03T08:57:49.358Z,16.65
2023-07-03T08:58:49.472Z,16.72
2023-07-03T08:59:49.566Z,16.73
2023-07-03T09:00:49.917Z,16.75
2023-07-03T09:01:49.789Z,16.77
2023-07-03T09:02:49.826Z,16.78
2023-07-03T09:03:50.080Z,16.75
2023-07-03T09:04:49.935Z,16.70
2023-07-03T09:05:50.264Z,16.69
2023-07-03T09:06:50.027Z,16.69
2023-07-03T09:07:50.120Z,16.70
2023-07-03T09:08:49.167Z,16.70
2023-07-03T09:09:49.248Z,16.70
2023-07-03T09:10:50.418Z,16.75
2023-07-03T09:11:49.441Z,16.80
2023-07-03T09:12:49.608Z,16.82
2023-07-03T09:13:49.621Z,16.84
2023-07-03T09:14:50.741Z,16.84
2023-07-03T09:15:51.052Z,16.88
2023-07-03T09:16:49.991Z,16.96
2023-07-03T09:17:51.424Z,17.07
2023-07-03T09:18:50.020Z,17.20
2023-07-03T09:19:49.040Z,17.33
2023-07-03T09:20:49.379Z,17.43
2023-07-03T09:21:49.300Z,17.55
2023-07-03T09:22:49.816Z,17.60
2023-07-03T09:23:49.410Z,17.66
2023-07-03T09:24:50.361Z,17.71
2023-07-03T09:25:51.510Z,17.65
2023-07-03T09:26:50.611Z,17.60
2023-07-03T09:27:49.928Z,17.54
2023-07-03T09:28:49.934Z,17.63
2023-07-03T09:29:49.888Z,17.70
2023-07-03T09:30:49.253Z,17.74
2023-07-03T09:31:49.139Z,17.80
2023-07-03T09:32:49.089Z,17.81
2023-07-03T09:33:50.102Z,17.84
2023-07-03T09:34:49.331Z,17.87
2023-07-03T09:35:50.398Z,17.92
2023-07-03T09:36:49.369Z,17.94
2023-07-03T09:37:50.479Z,18.02
2023-07-03T09:38:49.566Z,18.09
2023-07-03T09:39:49.773Z,18.17
2023-07-03T09:40:49.968Z,18.28
2023-07-03T09:41:48.756Z,18.35
2023-07-03T09:42:50.116Z,18.44
2023-07-03T09:43:48.967Z,18.49
2023-07-03T09:44:49.037Z,18.47
2023-07-03T09:45:49.373Z,18.44
2023-07-03T09:46:49.240Z,18.49
2023-07-03T09:47:50.294Z,18.53
2023-07-03T09:48:49.386Z,18.46
2023-07-03T09:49:49.619Z,18.39
2023-07-03T09:51:05.774Z,18.35
2023-07-03T09:51:50.489Z,18.29
2023-07-03T09:53:03.660Z,18.36
2023-07-03T09:53:50.635Z,18.44
2023-07-03T09:54:48.758Z,18.46
2023-07-03T09:55:48.894Z,18.42
2023-07-03T09:56:48.806Z,18.35
2023-07-03T09:57:48.854Z,18.31
2023-07-03T09:58:48.891Z,18.28
2023-07-03T09:59:48.986Z,18.23
2023-07-03T10:00:49.509Z,18.20
2023-07-03T10:03:49.325Z,18.17
2023-07-03T10:06:49.528Z,18.26
2023-07-03T10:07:48.827Z,18.29
2023-07-03T10:08:49.993Z,18.32
2023-07-03T10:11:48.918Z,18.44
2023-07-03T10:12:49.111Z,18.47
2023-07-03T10:13:49.236Z,18.47
2023-07-03T10:14:49.084Z,18.49
2023-07-03T10:15:49.292Z,18.50
2023-07-03T10:16:50.220Z,18.49
2023-07-03T10:17:49.649Z,18.46
2023-07-03T10:18:48.440Z,18.42
2023-07-03T10:19:49.444Z,18.44
2023-07-03T10:20:49.551Z,18.41
2023-07-03T10:21:49.736Z,18.49
2023-07-03T10:22:48.680Z,18.49
2023-07-03T10:23:48.870Z,18.60
2023-07-03T10:24:48.801Z,18.64
2023-07-03T10:25:49.243Z,18.68
2023-07-03T10:26:48.961Z,18.69
2023-07-03T10:27:49.002Z,18.68
2023-07-03T10:28:49.539Z,18.65
2023-07-03T10:29:48.136Z,18.60
2023-07-03T10:30:48.245Z,18.56
2023-07-03T10:31:48.353Z,18.62
2023-07-03T10:32:48.431Z,18.69
2023-07-03T10:33:48.449Z,18.82
2023-07-03T10:34:48.594Z,18.87
2023-07-03T10:35:48.783Z,19.05
2023-07-03T10:36:48.717Z,19.01
2023-07-03T10:37:48.782Z,19.07
2023-07-03T10:38:48.888Z,19.06
2023-07-03T10:39:48.950Z,19.02
2023-07-03T10:40:48.143Z,19.06
2023-07-03T10:41:48.124Z,19.17
2023-07-03T10:42:48.150Z,19.28
2023-07-03T10:43:48.246Z,19.34
2023-07-03T10:44:48.342Z,19.42
2023-07-03T10:45:48.799Z,19.45
2023-07-03T10:46:48.533Z,19.46
2023-07-03T10:47:48.954Z,19.42
2023-07-03T10:48:48.628Z,19.32
2023-07-03T10:49:48.710Z,19.31
2023-07-03T10:50:49.164Z,19.30
2023-07-03T10:51:49.032Z,19.23
2023-07-03T10:52:47.880Z,19.09
2023-07-03T10:53:47.978Z,18.99
2023-07-03T10:54:48.059Z,18.94
2023-07-03T10:55:48.223Z,18.91
2023-07-03T10:56:48.219Z,18.94
2023-07-03T10:57:49.273Z,19.07
2023-07-03T10:58:48.331Z,19.24
2023-07-03T10:59:48.401Z,19.40
2023-07-03T11:00:48.481Z,19.61
2023-07-03T11:01:48.687Z,19.76
2023-07-03T11:02:48.644Z,19.85
2023-07-03T11:03:49.895Z,19.90
2023-07-03T11:04:48.867Z,20.01
2023-07-03T11:05:47.853Z,20.02
2023-07-03T11:06:47.909Z,20.07
2023-07-03T11:07:48.056Z,20.08
2023-07-03T11:08:48.075Z,20.00
2023-07-03T11:09:48.123Z,19.92
2023-07-03T11:10:48.233Z,19.97
2023-07-03T11:11:48.317Z,20.00
2023-07-03T11:12:48.391Z,19.89
2023-07-03T11:13:48.485Z,19.89
2023-07-03T11:14:48.498Z,19.82
2023-07-03T11:15:48.584Z,19.79
2023-07-03T11:16:48.724Z,19.75
2023-07-03T11:22:47.979Z,19.55
2023-07-03T11:23:48.094Z,19.61
2023-07-03T11:24:48.146Z,19.64
2023-07-03T11:28:48.462Z,20.08
2023-07-03T11:29:47.334Z,20.01
2023-07-03T11:30:48.568Z,19.94
2023-07-03T11:31:48.554Z,19.86
2023-07-03T11:32:48.498Z,19.82
2023-07-03T11:39:47.956Z,19.67
2023-07-03T11:40:48.163Z,19.60
2023-07-03T11:43:48.170Z,19.58
2023-07-03T11:44:47.220Z,19.64
2023-07-03T11:45:47.293Z,19.62
2023-07-03T11:46:47.421Z,19.65
2023-07-03T11:47:47.413Z,19.68
2023-07-03T11:48:47.444Z,19.65
2023-07-03T11:49:47.541Z,19.62
2023-07-03T11:50:47.628Z,19.61
2023-07-03T11:51:48.564Z,19.58
2023-07-03T11:52:47.675Z,19.55
2023-07-03T11:53:47.772Z,19.50
2023-07-03T11:54:47.783Z,19.45
2023-07-03T11:55:48.003Z,19.43
2023-07-03T11:56:47.921Z,19.43
2023-07-03T11:57:53.123Z,19.46
2023-07-03T11:58:47.990Z,19.47
2023-07-03T11:59:47.068Z,19.49
2023-07-03T12:00:47.206Z,19.53
2023-07-03T12:01:47.238Z,19.50
2023-07-03T12:02:47.332Z,19.49
2023-07-03T12:03:47.358Z,19.46
2023-07-03T12:04:49.797Z,19.50
2023-07-03T12:05:47.609Z,19.61
2023-07-03T12:06:47.567Z,19.78
2023-07-03T12:07:47.523Z,19.95
2023-07-03T12:08:47.598Z,20.10
2023-07-03T12:09:47.628Z,20.15
2023-07-03T12:10:47.669Z,20.17
2023-07-03T12:11:47.744Z,20.20
2023-07-03T12:12:47.888Z,20.37
2023-07-03T12:13:46.923Z,20.51
2023-07-03T12:14:46.954Z,20.64
2023-07-03T12:15:46.983Z,20.69
2023-07-03T12:16:46.998Z,20.75
2023-07-03T12:17:47.265Z,20.68
2023-07-03T12:18:47.095Z,20.71
2023-07-03T12:19:47.210Z,20.64
2023-07-03T12:20:47.220Z,20.60
2023-07-03T12:21:47.330Z,20.44
2023-07-03T12:22:47.305Z,20.40
2023-07-03T12:23:49.210Z,20.42
2023-07-03T12:24:47.301Z,20.44
2023-07-03T12:25:47.513Z,20.46
2023-07-03T12:26:47.461Z,20.48
2023-07-03T12:27:47.437Z,20.42
2023-07-03T12:28:47.517Z,20.33
2023-07-03T12:29:48.577Z,20.20
2023-07-03T12:30:46.602Z,20.04
2023-07-03T12:31:46.679Z,19.95
2023-07-03T12:32:46.732Z,19.86
2023-07-03T12:33:46.813Z,19.86
2023-07-03T12:34:46.785Z,19.89
2023-07-03T12:35:46.869Z,19.89
2023-07-03T12:36:50.557Z,19.97
2023-07-03T12:37:47.018Z,20.02
2023-07-03T12:38:47.091Z,20.15
2023-07-03T12:39:47.125Z,20.22
2023-07-03T12:40:47.187Z,20.23
2023-07-03T12:41:47.205Z,20.35
2023-07-03T12:42:48.251Z,20.51
2023-07-03T12:43:53.584Z,20.58
2023-07-03T12:44:48.296Z,20.60
2023-07-03T12:45:48.621Z,20.56
2023-07-03T12:46:46.402Z,20.46
2023-07-03T12:47:47.385Z,20.42
2023-07-03T12:48:47.425Z,20.46
2023-07-03T12:49:46.523Z,20.35
2023-07-03T12:50:47.515Z,20.27
2023-07-03T12:51:47.667Z,20.37
2023-07-03T12:52:47.587Z,20.31
2023-07-03T12:53:47.640Z,20.40
2023-07-03T12:54:46.694Z,20.30
2023-07-03T12:55:46.837Z,20.34
2023-07-03T12:56:46.841Z,20.37
2023-07-03T12:57:46.890Z,20.35
2023-07-03T12:58:46.920Z,20.50
2023-07-03T12:59:47.038Z,20.68
2023-07-03T13:00:46.995Z,20.88
2023-07-03T13:01:47.082Z,21.01
2023-07-03T13:02:47.198Z,21.09
2023-07-03T13:03:48.153Z,21.12
2023-07-03T13:04:47.201Z,21.21
2023-07-03T13:05:46.457Z,21.34
2023-07-03T13:06:47.229Z,21.37
2023-07-03T13:07:47.222Z,21.43
2023-07-03T13:08:46.284Z,21.49
2023-07-03T13:09:47.378Z,21.45
2023-07-03T13:10:46.357Z,21.40
2023-07-03T13:11:46.450Z,21.34
2023-07-03T13:12:46.445Z,21.37
2023-07-03T13:13:46.539Z,21.55
2023-07-03T13:14:46.575Z,21.51
2023-07-03T13:15:46.562Z,21.43
2023-07-03T13:16:46.715Z,21.43
2023-07-03T13:17:46.780Z,21.48